Time;durP1;ratioP1;P1;durP2;ratioP2;P2;SDS_P1;SDS_P2;PMS_P1;PMS_P2;Temp;Humidity;BMP_temperature;BMP_pressure;BME280_temperature;BME280_humidity;BME280_pressure;Samples;Min_cycle;Max_cycle;Signal;HPM_P1;HPM_P2
2022/11/06 00:02:24;;;;;;;9.73;4.50;;;;;;;10.28;100.00;101265.72;5027378;28;20029;-65
2022/11/06 00:04:49;;;;;;;11.50;4.68;;;;;;;10.24;100.00;101255.97;5024654;28;20456;-66
2022/11/06 00:07:15;;;;;;;12.25;4.60;;;;;;;10.21;100.00;101253.28;5015261;28;20092;-66
2022/11/06 00:09:40;;;;;;;10.18;4.50;;;;;;;10.18;100.00;101237.44;5013602;28;20045;-67
2022/11/06 00:12:05;;;;;;;15.27;5.38;;;;;;;10.18;100.00;101234.81;5017463;28;20026;-66
2022/11/06 00:14:31;;;;;;;12.23;4.70;;;;;;;10.20;100.00;101235.72;5013379;28;20524;-66
2022/11/06 00:16:56;;;;;;;9.20;4.75;;;;;;;10.23;100.00;101225.28;5022439;28;20023;-67
2022/11/06 00:19:21;;;;;;;7.50;4.05;;;;;;;10.21;100.00;101226.97;5013860;28;20441;-67
2022/11/06 00:21:47;;;;;;;12.57;4.85;;;;;;;10.22;100.00;101224.38;5013244;28;20033;-67
2022/11/06 00:24:14;;;;;;;8.98;4.03;;;;;;;10.22;100.00;101234.03;5019287;28;20059;-67
2022/11/06 00:26:40;;;;;;;6.82;4.43;;;;;;;10.24;100.00;101234.94;5014080;28;20030;-67
2022/11/06 00:29:05;;;;;;;15.57;4.72;;;;;;;10.29;100.00;101222.78;5017729;28;20108;-67
2022/11/06 00:31:34;;;;;;;14.02;5.35;;;;;;;10.33;100.00;101232.53;5016589;28;20435;-67
2022/11/06 00:34:00;;;;;;;11.98;4.47;;;;;;;10.37;100.00;101234.41;5017399;28;20029;-66
2022/11/06 00:36:29;;;;;;;8.95;4.90;;;;;;;10.36;100.00;101224.72;5014165;28;20026;-67
2022/11/06 00:38:55;;;;;;;10.40;4.13;;;;;;;10.28;100.00;101231.53;5020167;28;20080;-66
2022/11/06 00:41:22;;;;;;;8.75;4.70;;;;;;;10.26;100.00;101230.63;5021215;28;20034;-67
2022/11/06 00:43:49;;;;;;;10.93;4.60;;;;;;;10.18;100.00;101227.78;5019207;28;20033;-67
2022/11/06 00:46:15;;;;;;;12.57;4.63;;;;;;;10.20;100.00;101230.44;5027178;28;20091;-67
2022/11/06 00:48:41;;;;;;;14.27;5.13;;;;;;;10.18;100.00;101230.41;5018009;28;20040;-67
2022/11/06 00:51:18;;;;;;;9.82;4.38;;;;;;;10.20;100.00;101219.94;5023458;28;20052;-67
2022/11/06 00:53:44;;;;;;;19.02;4.72;;;;;;;10.19;100.00;101228.69;5031270;28;20115;-67
2022/11/06 00:56:15;;;;;;;10.98;4.60;;;;;;;10.17;100.00;101219.88;5017909;28;20053;-66
2022/11/06 00:58:41;;;;;;;11.70;5.30;;;;;;;10.13;100.00;101219.81;5029490;28;20030;-67
2022/11/06 01:01:06;;;;;;;16.25;5.15;;;;;;;10.11;100.00;101221.50;5019061;28;20036;-67
2022/11/06 01:03:31;;;;;;;13.00;5.40;;;;;;;10.03;100.00;101217.78;5026864;28;20035;-66
2022/11/06 01:06:29;;;;;;;10.88;5.10;;;;;;;9.97;100.00;101228.16;5022492;28;20029;-67
2022/11/06 01:08:55;;;;;;;11.40;5.05;;;;;;;9.94;100.00;101230.69;5026188;28;20045;-65
2022/11/06 01:11:26;;;;;;;14.68;4.78;;;;;;;9.90;100.00;101228.84;5022102;28;20552;-66
2022/11/06 01:13:54;;;;;;;15.75;4.95;;;;;;;9.85;100.00;101228.72;5021863;28;20049;-66
2022/11/06 01:16:20;;;;;;;17.95;5.68;;;;;;;9.79;100.00;101218.97;5028990;28;20057;-67
2022/11/06 01:18:46;;;;;;;13.38;5.63;;;;;;;9.79;100.00;101215.41;5030156;28;20373;-66
2022/11/06 01:21:18;;;;;;;19.05;6.13;;;;;;;9.74;100.00;101204.81;5023197;28;20025;-65
2022/11/06 01:23:44;;;;;;;17.67;6.90;;;;;;;9.76;100.00;101208.34;5024013;28;20088;-67
2022/11/06 01:26:11;;;;;;;16.35;5.75;;;;;;;9.75;100.00;101201.34;5017371;28;20600;-66
2022/11/06 01:28:38;;;;;;;20.35;6.68;;;;;;;9.71;100.00;101195.94;5016322;28;20025;-67
2022/11/06 01:31:06;;;;;;;25.00;6.28;;;;;;;9.66;100.00;101195.84;5026605;28;20157;-67
2022/11/06 01:33:31;;;;;;;13.65;6.05;;;;;;;9.67;100.00;101200.25;5035233;28;20401;-65
2022/11/06 01:35:57;;;;;;;17.27;6.63;;;;;;;9.65;100.00;101204.56;5026178;28;20053;-66
2022/11/06 01:38:22;;;;;;;15.35;6.22;;;;;;;9.66;100.00;101205.44;5027714;28;20052;-66
2022/11/06 01:40:48;;;;;;;17.38;5.90;;;;;;;9.70;100.00;101210.84;5022128;28;20041;-66
2022/11/06 01:43:17;;;;;;;15.95;6.22;;;;;;;9.71;100.00;101202.09;5016434;28;20117;-66
2022/11/06 01:45:46;;;;;;;19.15;5.93;;;;;;;9.70;100.00;101197.69;5025085;28;20412;-66
2022/11/06 01:48:13;;;;;;;22.75;6.75;;;;;;;9.69;100.00;101195.91;5035601;28;20052;-66
2022/11/06 01:50:42;;;;;;;13.48;5.78;;;;;;;9.67;100.00;101192.38;5022814;28;20033;-65
2022/11/06 01:53:08;;;;;;;8.52;5.20;;;;;;;9.62;100.00;101196.59;5028790;28;20037;-67
2022/11/06 01:55:41;;;;;;;19.75;6.28;;;;;;;9.61;100.00;101194.81;5032898;28;20034;-67
2022/11/06 01:58:08;;;;;;;;;;;;;;;9.60;100.00;101195.66;5022126;28;20030;-67
2022/11/06 02:00:33;;;;;;;17.55;6.25;;;;;;;9.57;100.00;101199.09;5031948;28;19921;-67
2022/11/06 02:03:00;;;;;;;15.85;6.18;;;;;;;9.55;100.00;101186.75;5028730;28;20029;-68
2022/11/06 02:05:25;;;;;;;12.40;6.05;;;;;;;9.52;100.00;101202.44;5018011;28;20105;-66
2022/11/06 02:07:52;;;;;;;17.13;6.13;;;;;;;9.51;100.00;101198.03;5032652;28;20112;-66
2022/11/06 02:10:17;;;;;;;15.48;6.90;;;;;;;9.55;100.00;101178.88;5028758;28;20854;-66
2022/11/06 02:12:42;;;;;;;12.90;6.53;;;;;;;9.53;100.00;101184.09;5020050;28;20112;-66
2022/11/06 02:15:52;;;;;;;12.52;6.43;;;;;;;9.52;100.00;101182.34;5025899;28;20489;-67
2022/11/06 02:18:21;;;;;;;15.27;6.35;;;;;;;9.54;100.00;101178.00;5024646;28;20052;-66
2022/11/06 02:21:19;;;;;;;12.70;6.57;;;;;;;9.51;100.00;101169.16;5024484;28;20022;-66
2022/11/06 02:24:02;;;;;;;13.00;6.38;;;;;;;9.51;100.00;101166.50;5019786;28;20036;-67
2022/11/06 02:26:46;;;;;;;20.30;7.25;;;;;;;9.49;100.00;101165.59;5025782;28;20026;-67
2022/11/06 02:29:20;;;;;;;16.15;7.32;;;;;;;9.51;100.00;101171.78;5020487;28;20048;-67
2022/11/06 02:31:49;;;;;;;26.75;7.43;;;;;;;9.51;100.00;101163.88;5026059;28;20029;-67
2022/11/06 02:34:19;;;;;;;14.07;7.15;;;;;;;9.49;100.00;101162.97;5029478;28;20038;-66
2022/11/06 02:36:58;;;;;;;12.57;7.07;;;;;;;9.53;100.00;101156.94;5016531;28;20026;-66
2022/11/06 02:39:27;;;;;;;22.05;8.27;;;;;;;9.54;100.00;101161.38;5027034;28;20033;-66
2022/11/06 02:41:56;;;;;;;19.20;8.18;;;;;;;9.53;100.00;101162.22;5033381;28;20021;-67
2022/11/06 02:44:26;;;;;;;25.33;8.55;;;;;;;9.52;100.00;101158.69;5016943;28;20054;-67
2022/11/06 02:46:56;;;;;;;19.33;9.10;;;;;;;9.50;100.00;101155.13;5026879;28;20100;-67
2022/11/06 02:49:35;;;;;;;21.50;8.48;;;;;;;9.53;100.00;101146.44;5028066;28;20033;-66
2022/11/06 02:52:25;;;;;;;21.05;8.02;;;;;;;9.54;100.00;101148.22;5029009;28;20032;-66
2022/11/06 02:55:01;;;;;;;22.17;8.63;;;;;;;9.54;100.00;101142.97;5028447;28;20045;-67
2022/11/06 02:57:30;;;;;;;27.52;10.07;;;;;;;9.52;100.00;101144.66;5019448;28;20163;-66
2022/11/06 03:00:01;;;;;;;26.83;11.57;;;;;;;9.58;100.00;101144.84;5019667;28;20026;-67
2022/11/06 03:02:32;;;;;;;19.63;10.10;;;;;;;9.59;100.00;101151.84;5020644;28;20032;-67
2022/11/06 03:05:20;;;;;;;21.48;10.27;;;;;;;9.59;100.00;101152.75;5030383;28;20381;-68
2022/11/06 03:08:12;;;;;;;28.45;10.40;;;;;;;9.55;100.00;101152.59;5003436;28;20397;-67
2022/11/06 03:10:52;;;;;;;25.02;10.15;;;;;;;9.56;100.00;101150.06;5028433;28;20026;-67
2022/11/06 03:13:23;;;;;;;25.38;10.20;;;;;;;9.56;100.00;101138.63;5024491;28;20036;-66
2022/11/06 03:16:04;;;;;;;29.50;9.75;;;;;;;9.59;100.00;101136.97;5031518;28;20025;-67
2022/11/06 03:18:54;;;;;;;23.08;10.73;;;;;;;9.60;100.00;101127.34;5020429;28;20458;-66
2022/11/06 03:21:29;;;;;;;31.60;11.63;;;;;;;9.59;100.00;101120.31;5020538;28;20401;-67
2022/11/06 03:24:01;;;;;;;23.10;10.68;;;;;;;9.58;100.00;101134.31;5016682;28;20080;-67
2022/11/06 03:26:42;;;;;;;23.30;10.82;;;;;;;9.60;100.00;101138.75;5020535;28;20057;-66
2022/11/06 03:29:17;;;;;;;22.40;10.63;;;;;;;9.64;100.00;101125.69;5014065;28;20120;-67
2022/11/06 03:31:50;;;;;;;19.92;10.32;;;;;;;9.63;100.00;101135.34;5025564;28;20109;-67
2022/11/06 03:34:25;;;;;;;21.92;10.27;;;;;;;9.64;100.00;101136.22;5019568;28;20080;-67
2022/11/06 03:37:01;;;;;;;30.10;11.35;;;;;;;9.65;100.00;101109.97;5016078;28;20442;-67
2022/11/06 03:39:33;;;;;;;23.25;12.57;;;;;;;9.71;100.00;101110.13;5017674;28;20450;-66
2022/11/06 03:42:08;;;;;;;33.85;11.88;;;;;;;9.70;100.00;101113.59;5019211;28;20028;-66
2022/11/06 03:44:39;;;;;;;24.00;11.70;;;;;;;9.71;100.00;101111.84;5026934;28;20117;-67
2022/11/06 03:47:12;;;;;;;20.08;11.27;;;;;;;9.71;100.00;101097.00;5024119;28;20021;-67
2022/11/06 03:49:53;;;;;;;27.15;12.48;;;;;;;9.76;100.00;101102.34;5021644;28;20034;-66
2022/11/06 03:52:26;;;;;;;27.52;12.30;;;;;;;9.76;100.00;101103.22;5021087;28;20034;-65
2022/11/06 03:55:00;;;;;;;28.67;12.82;;;;;;;9.78;100.00;101101.53;5019801;28;20034;-66
2022/11/06 03:57:47;;;;;;;25.30;12.43;;;;;;;9.77;100.00;101078.72;5019246;28;20104;-67
2022/11/06 04:00:15;;;;;;;29.25;12.38;;;;;;;9.79;100.00;101084.00;5021057;28;20045;-67
2022/11/06 04:02:45;;;;;;;22.23;11.95;;;;;;;9.77;100.00;101083.97;5032085;28;20052;-66
2022/11/06 04:05:16;;;;;;;23.23;12.05;;;;;;;9.82;100.00;101085.81;5031050;28;20036;-67
2022/11/06 04:13:56;;;;;;;25.98;11.43;;;;;;;9.82;100.00;101081.47;5029570;28;20021;-67
2022/11/06 04:16:08;;;;;;;24.08;10.68;;;;;;;9.89;100.00;101061.44;5023352;28;20559;-65
2022/11/06 04:18:33;;;;;;;19.42;9.82;;;;;;;9.88;100.00;101059.69;5032383;28;20044;-67
2022/11/06 04:21:26;;;;;;;21.40;9.27;;;;;;;9.91;100.00;101057.13;5026616;28;20017;-66
2022/11/06 04:27:44;;;;;;;22.23;9.23;;;;;;;9.93;100.00;101052.81;5022945;28;20417;-66
2022/11/06 04:30:13;;;;;;;13.18;7.85;;;;;;;9.93;100.00;101055.44;5022233;28;20033;-67
2022/11/06 04:32:59;;;;;;;23.13;9.50;;;;;;;9.94;100.00;101057.19;5013498;28;20032;-67
2022/11/06 04:35:30;;;;;;;22.02;8.25;;;;;;;10.00;100.00;101052.09;5013156;28;20434;-67
2022/11/06 04:38:12;;;;;;;12.48;7.70;;;;;;;10.03;100.00;101053.91;5017300;28;20033;-67
2022/11/06 04:40:57;;;;;;;21.00;9.63;;;;;;;10.00;100.00;101054.72;5029399;28;20033;-67
2022/11/06 04:43:34;;;;;;;22.50;9.27;;;;;;;10.05;100.00;101042.56;5021765;28;20036;-66
2022/11/06 04:46:03;;;;;;;12.15;7.35;;;;;;;10.01;100.00;101039.81;5017928;28;20050;-68
2022/11/06 04:48:29;;;;;;;21.58;9.18;;;;;;;9.99;100.00;101046.81;5019260;28;20025;-65
2022/11/06 04:51:00;;;;;;;21.73;8.82;;;;;;;9.93;100.00;101032.66;5027077;28;20025;-66
2022/11/06 04:53:27;;;;;;;15.60;8.40;;;;;;;9.91;100.00;101038.72;5012627;28;20021;-66
2022/11/06 04:55:58;;;;;;;17.42;8.07;;;;;;;9.87;100.00;101031.63;5012272;28;20049;-65
2022/11/06 04:58:23;;;;;;;23.48;9.23;;;;;;;9.84;100.00;101042.09;5019129;28;20547;-67
2022/11/06 05:00:50;;;;;;;18.38;8.35;;;;;;;9.85;100.00;101041.22;5020556;28;20163;-66
2022/11/06 05:03:16;;;;;;;14.30;7.80;;;;;;;9.84;100.00;101053.47;5028886;28;20096;-65
2022/11/06 05:05:42;;;;;;;14.57;7.38;;;;;;;9.78;100.00;101027.06;5028458;28;20050;-66
2022/11/06 05:08:15;;;;;;;16.20;7.68;;;;;;;9.74;100.00;101030.44;5023167;28;20037;-66
2022/11/06 05:10:44;;;;;;;;;;;;;;;9.75;100.00;101021.72;5017496;28;20033;-66
2022/11/06 05:13:09;;;;;;;16.05;7.05;;;;;;;9.73;100.00;101040.09;5031929;28;20369;-66
2022/11/06 05:15:35;;;;;;;24.10;7.78;;;;;;;9.74;100.00;101026.09;5019961;28;20116;-66
2022/11/06 05:18:00;;;;;;;18.48;7.28;;;;;;;9.71;100.00;101007.66;5020351;28;20029;-66
2022/11/06 05:20:26;;;;;;;14.65;7.15;;;;;;;9.71;100.00;100999.78;5020976;28;20028;-66
2022/11/06 05:22:57;;;;;;;13.40;6.85;;;;;;;9.70;100.00;101008.50;5016621;28;20105;-67
2022/11/06 05:25:28;;;;;;;17.65;7.45;;;;;;;9.72;100.00;100991.00;5015398;28;20021;-66
2022/11/06 05:27:54;;;;;;;20.58;7.85;;;;;;;9.70;100.00;100997.97;5017778;28;20029;-66
2022/11/06 05:30:20;;;;;;;22.05;8.45;;;;;;;9.72;100.00;100996.25;5027435;28;20025;-66
2022/11/06 05:32:45;;;;;;;16.23;7.80;;;;;;;9.70;100.00;100992.72;5017145;28;20510;-66
2022/11/06 05:35:10;;;;;;;14.95;7.45;;;;;;;9.71;100.00;100991.88;5011188;28;20036;-67
2022/11/06 05:37:36;;;;;;;13.75;7.30;;;;;;;9.70;100.00;100984.84;5024815;28;20029;-66
2022/11/06 05:40:01;;;;;;;19.60;7.32;;;;;;;9.73;100.00;100982.28;5016803;28;20037;-66
2022/11/06 05:42:26;;;;;;;17.02;6.18;;;;;;;9.71;100.00;100980.47;5020806;28;20104;-66
2022/11/06 05:44:52;;;;;;;19.88;7.85;;;;;;;9.75;100.00;100985.84;5029449;28;20041;-66
2022/11/06 05:47:17;;;;;;;13.25;7.18;;;;;;;9.71;100.00;100976.13;5022852;28;20033;-67
2022/11/06 05:49:42;;;;;;;13.27;6.72;;;;;;;9.73;100.00;100982.28;5017663;28;20034;-67
2022/11/06 05:52:08;;;;;;;14.77;6.93;;;;;;;9.74;100.00;100970.91;5018333;28;20069;-67
2022/11/06 05:54:33;;;;;;;11.65;6.90;;;;;;;9.72;100.00;100969.09;5016524;28;20068;-67
2022/11/06 05:56:58;;;;;;;14.38;6.30;;;;;;;9.72;100.00;100975.25;5018847;28;20116;-66
2022/11/06 05:59:24;;;;;;;16.25;6.72;;;;;;;9.70;100.00;100966.44;5018148;28;20022;-66
2022/11/06 06:01:49;;;;;;;15.88;6.45;;;;;;;9.72;100.00;100969.97;5017196;28;20030;-66
2022/11/06 06:04:14;;;;;;;12.63;6.88;;;;;;;9.72;100.00;100962.09;5021717;28;20033;-66
2022/11/06 06:06:40;;;;;;;11.82;6.35;;;;;;;9.73;100.00;100966.50;5025208;28;20025;-66
2022/11/06 06:09:05;;;;;;;12.05;5.68;;;;;;;9.75;100.00;100969.16;5022387;28;20054;-66
2022/11/06 06:11:31;;;;;;;14.05;6.22;;;;;;;9.73;100.00;100966.50;5015406;28;20032;-65
2022/11/06 06:13:56;;;;;;;12.20;6.15;;;;;;;9.73;100.00;100956.00;5024880;28;20025;-66
2022/11/06 06:16:21;;;;;;;10.32;5.95;;;;;;;9.75;100.00;100967.44;5012737;28;20129;-66
2022/11/06 06:18:50;;;;;;;10.82;5.97;;;;;;;9.78;100.00;100970.13;5030474;28;20072;-66
2022/11/06 06:21:16;;;;;;;15.63;6.00;;;;;;;9.77;100.00;100963.09;5021485;28;20033;-66
2022/11/06 06:23:42;;;;;;;16.25;6.03;;;;;;;9.78;100.00;100953.50;5017864;28;20438;-67
2022/11/06 06:26:08;;;;;;;19.52;6.07;;;;;;;9.76;100.00;100966.56;5016240;28;20030;-66
2022/11/06 06:28:33;;;;;;;15.68;5.57;;;;;;;9.83;100.00;100956.19;5015721;28;20465;-67
2022/11/06 06:31:03;;;;;;;14.27;4.85;;;;;;;9.79;100.00;100976.25;5023048;28;20465;-66
2022/11/06 06:33:29;;;;;;;11.77;5.47;;;;;;;9.83;100.00;100953.56;5019913;28;20434;-68
2022/11/06 06:35:54;;;;;;;13.02;5.18;;;;;;;9.85;100.00;100957.09;5016287;28;20121;-66
2022/11/06 06:38:19;;;;;;;13.35;5.50;;;;;;;9.76;100.00;100955.19;5029431;28;20528;-66
2022/11/06 06:40:45;;;;;;;12.32;4.82;;;;;;;9.70;100.00;100950.69;5034070;28;20071;-66
2022/11/06 06:43:10;;;;;;;13.82;5.00;;;;;;;9.69;100.00;100943.66;5025059;28;20193;-66
2022/11/06 06:45:35;;;;;;;13.13;5.32;;;;;;;9.73;100.00;100947.25;5027504;28;20029;-65
2022/11/06 06:48:04;;;;;;;14.07;4.97;;;;;;;9.70;100.00;100942.81;5015232;28;20052;-66
2022/11/06 06:50:30;;;;;;;10.90;5.13;;;;;;;9.73;100.00;100931.47;5029079;28;20056;-66
2022/11/06 06:52:58;;;;;;;13.63;5.60;;;;;;;9.73;100.00;100929.72;5029796;28;20496;-65
2022/11/06 06:55:24;;;;;;;14.88;5.10;;;;;;;9.76;100.00;100939.41;5019817;28;20077;-66
2022/11/06 06:57:57;;;;;;;10.52;5.25;;;;;;;9.75;100.00;100933.28;5026568;28;20085;-66
2022/11/06 07:00:22;;;;;;;15.88;5.50;;;;;;;9.79;100.00;100934.22;5021489;28;20037;-67
2022/11/06 07:02:48;;;;;;;13.45;5.10;;;;;;;9.79;100.00;100927.25;5029723;28;20021;-66
2022/11/06 07:05:13;;;;;;;10.95;5.22;;;;;;;9.86;100.00;100929.97;5018163;28;20060;-66
2022/11/06 07:07:38;;;;;;;10.23;4.25;;;;;;;9.90;100.00;100929.19;5024141;28;20018;-69
2022/11/06 07:10:04;;;;;;;7.90;3.40;;;;;;;9.91;100.00;100921.31;5021136;28;20029;-67
2022/11/06 07:12:29;;;;;;;14.18;3.80;;;;;;;9.92;100.00;100923.09;5021450;28;20032;-68
2022/11/06 07:14:54;;;;;;;8.10;3.20;;;;;;;9.95;100.00;100917.03;5024590;28;20030;-68
2022/11/06 07:17:20;;;;;;;9.60;3.95;;;;;;;9.95;100.00;100914.41;5020131;28;20025;-66
2022/11/06 07:19:45;;;;;;;14.93;3.72;;;;;;;9.98;100.00;100930.22;5034021;28;20588;-67
2022/11/06 07:22:11;;;;;;;12.13;3.90;;;;;;;10.03;100.00;100932.97;5030806;28;20030;-68
2022/11/06 07:24:36;;;;;;;6.28;2.90;;;;;;;10.06;100.00;100936.53;5031130;28;20535;-69
2022/11/06 07:27:01;;;;;;;8.55;3.35;;;;;;;10.10;100.00;100927.84;5031676;28;20457;-67
2022/11/06 07:29:27;;;;;;;12.15;3.03;;;;;;;10.11;100.00;100936.63;5018358;28;20048;-68
2022/11/06 07:31:52;;;;;;;11.98;3.05;;;;;;;10.12;100.00;100934.03;5015545;28;20473;-67
2022/11/06 07:34:17;;;;;;;15.75;3.40;;;;;;;10.17;100.00;100930.59;5029359;28;20378;-68
2022/11/06 07:36:43;;;;;;;9.50;2.83;;;;;;;10.23;100.00;100926.34;5020006;28;20025;-67
2022/11/06 07:39:08;;;;;;;7.25;3.15;;;;;;;10.26;100.00;100921.13;5026491;28;20128;-68
2022/11/06 07:41:33;;;;;;;13.57;3.47;;;;;;;10.31;100.00;100913.34;5013791;28;20022;-68
2022/11/06 07:43:58;;;;;;;8.68;2.45;;;;;;;10.29;100.00;100922.94;5013660;28;20030;-67
2022/11/06 07:46:24;;;;;;;9.18;3.08;;;;;;;10.33;100.00;100923.91;5022980;28;20013;-67
2022/11/06 07:48:49;;;;;;;11.32;2.67;;;;;;;10.34;100.00;100937.06;5037538;28;20029;-66
2022/11/06 07:51:14;;;;;;;12.05;2.50;;;;;;;10.38;100.00;100925.78;5028940;28;20028;-67
2022/11/06 07:53:40;;;;;;;7.53;2.30;;;;;;;10.43;100.00;100926.75;5022683;28;20030;-68
2022/11/06 07:56:07;;;;;;;8.95;3.17;;;;;;;10.46;100.00;100923.31;5019577;28;20422;-67
2022/11/06 07:58:33;;;;;;;6.93;2.50;;;;;;;10.42;100.00;100922.34;5034585;28;20027;-66
2022/11/06 08:00:58;;;;;;;7.13;2.38;;;;;;;10.39;100.00;100929.28;5039138;28;20381;-66
2022/11/06 08:03:25;;;;;;;14.90;2.25;;;;;;;10.38;100.00;100928.41;5027997;28;20253;-67
2022/11/06 08:05:50;;;;;;;7.60;2.33;;;;;;;10.40;100.00;100938.97;5027157;28;20056;-67
2022/11/06 08:08:16;;;;;;;9.00;3.70;;;;;;;10.48;100.00;100931.22;5035923;28;20477;-67
2022/11/06 08:10:42;;;;;;;8.15;2.28;;;;;;;10.44;100.00;100933.81;5037417;28;20048;-67
2022/11/06 08:13:12;;;;;;;5.93;2.15;;;;;;;10.46;100.00;100925.94;5040755;28;20031;-66
2022/11/06 08:15:38;;;;;;;8.63;2.35;;;;;;;10.49;100.00;100922.47;5046905;28;20043;-66
2022/11/06 08:18:05;;;;;;;8.52;2.17;;;;;;;10.54;100.00;100915.53;5039981;28;20030;-67
2022/11/06 08:20:30;;;;;;;9.45;2.03;;;;;;;10.55;100.00;100927.84;5040844;28;20489;-66
2022/11/06 08:23:00;;;;;;;8.35;2.20;;;;;;;10.53;100.00;100924.31;5036012;28;20044;-66
2022/11/06 08:25:27;;;;;;;9.77;2.30;;;;;;;10.48;100.00;100915.44;5038312;28;20051;-66
2022/11/06 08:27:54;;;;;;;7.63;1.90;;;;;;;10.36;100.00;100921.34;5044558;28;20036;-67
2022/11/06 08:30:20;;;;;;;5.68;2.17;;;;;;;10.21;100.00;100903.50;5013650;28;20030;-66
2022/11/06 08:32:45;;;;;;;9.75;2.40;;;;;;;10.16;100.00;100913.94;5013797;28;20033;-67
2022/11/06 08:35:10;;;;;;;14.77;2.47;;;;;;;10.12;100.00;100909.50;5032880;28;20025;-66
2022/11/06 08:37:36;;;;;;;7.10;2.35;;;;;;;10.07;100.00;100898.88;5023228;28;20034;-66
2022/11/06 08:40:01;;;;;;;10.52;2.78;;;;;;;10.05;100.00;100884.81;5023084;28;20105;-66
2022/11/06 08:42:27;;;;;;;12.70;2.75;;;;;;;10.07;100.00;100877.84;5037681;28;20371;-66
2022/11/06 08:44:52;;;;;;;5.05;2.22;;;;;;;10.06;100.00;100881.31;5024959;28;20470;-66
2022/11/06 08:47:17;;;;;;;10.35;3.33;;;;;;;10.08;100.00;100884.88;5018787;28;20022;-66
2022/11/06 08:49:43;;;;;;;15.20;3.22;;;;;;;10.09;100.00;100868.25;5041044;28;20034;-66
2022/11/06 08:52:09;;;;;;;9.45;2.83;;;;;;;10.11;100.00;100871.78;5023639;28;20382;-66
2022/11/06 08:54:35;;;;;;;15.38;2.75;;;;;;;10.12;100.00;100863.03;5027414;28;20104;-67
2022/11/06 08:57:00;;;;;;;12.52;2.53;;;;;;;10.17;100.00;100863.09;5023808;28;20596;-65
2022/11/06 08:59:26;;;;;;;13.27;3.08;;;;;;;10.20;100.00;100857.03;5018847;28;20041;-66
2022/11/06 09:01:52;;;;;;;11.10;2.60;;;;;;;10.21;100.00;100853.53;5015636;28;20042;-66
2022/11/06 09:04:17;;;;;;;16.00;3.03;;;;;;;10.22;100.00;100850.94;5015588;28;20030;-65
2022/11/06 09:06:42;;;;;;;12.55;2.88;;;;;;;10.29;100.00;100846.69;5013869;28;20025;-66
2022/11/06 09:09:08;;;;;;;8.93;3.03;;;;;;;10.32;100.00;100851.97;5029073;28;20030;-67
2022/11/06 09:11:34;;;;;;;13.40;3.55;;;;;;;10.37;100.00;100844.22;5033022;28;20017;-67
2022/11/06 09:13:59;;;;;;;10.18;3.53;;;;;;;10.38;100.00;100846.00;5030684;28;20027;-66
2022/11/06 09:16:25;;;;;;;11.23;3.63;;;;;;;10.38;100.00;100849.50;5017939;28;20051;-67
2022/11/06 09:18:53;;;;;;;15.27;3.55;;;;;;;10.36;100.00;100852.97;5032585;28;20376;-67
2022/11/06 09:21:18;;;;;;;7.03;2.72;;;;;;;10.42;100.00;100846.06;5022048;28;20500;-67
2022/11/06 09:23:44;;;;;;;9.50;3.60;;;;;;;10.45;100.00;100854.00;5027170;28;20029;-66
2022/11/06 09:26:10;;;;;;;11.50;3.83;;;;;;;10.45;100.00;100858.38;5032395;28;20037;-67
2022/11/06 09:28:35;;;;;;;14.10;3.63;;;;;;;10.42;100.00;100856.59;5023670;28;20028;-66
2022/11/06 09:31:01;;;;;;;13.23;4.35;;;;;;;10.41;100.00;100852.19;5028286;28;20528;-66
2022/11/06 09:33:26;;;;;;;10.35;3.67;;;;;;;10.43;100.00;100845.22;5029617;28;20088;-67
2022/11/06 09:35:52;;;;;;;11.85;4.03;;;;;;;10.48;100.00;100839.16;5020023;28;20026;-65
2022/11/06 09:38:18;;;;;;;11.52;3.50;;;;;;;10.62;100.00;100834.97;5024079;28;20037;-65
2022/11/06 09:40:56;;;;;;;17.90;3.65;;;;;;;10.62;100.00;100829.72;5018391;28;20025;-66
2022/11/06 09:44:04;;;;;;;5.82;2.67;;;;;;;10.71;100.00;100824.59;5016235;28;20036;-67
2022/11/06 09:46:45;;;;;;;15.40;3.70;;;;;;;10.72;100.00;100821.13;5018986;28;20025;-67
2022/11/06 09:49:27;;;;;;;13.65;3.38;;;;;;;10.79;100.00;100820.34;5020056;28;20113;-67
2022/11/06 09:52:09;;;;;;;7.40;2.72;;;;;;;10.79;100.00;100817.69;5016951;28;20025;-67
2022/11/06 09:54:45;;;;;;;8.88;2.72;;;;;;;10.82;100.00;100808.97;5028458;28;20033;-68
2022/11/06 09:57:20;;;;;;;13.40;3.00;;;;;;;10.85;100.00;100806.41;5020477;28;20049;-69
2022/11/06 09:59:47;;;;;;;8.32;2.33;;;;;;;10.90;100.00;100809.09;5017060;28;20033;-68
2022/11/06 10:02:45;;;;;;;9.35;2.20;;;;;;;10.91;100.00;100813.50;5024833;28;20105;-67
2022/11/06 10:05:14;;;;;;;5.85;2.63;;;;;;;10.95;100.00;100808.28;5026566;28;20037;-68
2022/11/06 10:07:42;;;;;;;16.40;2.58;;;;;;;11.02;100.00;100813.66;5016724;28;20552;-68
2022/11/06 10:10:15;;;;;;;9.95;2.85;;;;;;;11.03;100.00;100818.03;5026364;28;20393;-67
2022/11/06 10:13:03;;;;;;;19.15;2.80;;;;;;;11.06;100.00;100813.72;5032432;28;20022;-67
2022/11/06 10:15:41;;;;;;;6.53;2.38;;;;;;;11.08;100.00;100808.47;5029601;28;20060;-68
2022/11/06 10:18:28;;;;;;;12.73;2.80;;;;;;;11.14;100.00;100804.16;5024728;28;20328;-67
2022/11/06 10:21:05;;;;;;;8.70;2.58;;;;;;;11.13;100.00;100794.50;5035275;28;20025;-67
2022/11/06 10:23:42;;;;;;;8.00;2.70;;;;;;;11.17;100.00;100789.28;5034507;28;20033;-67
2022/11/06 10:26:18;;;;;;;8.02;3.03;;;;;;;11.11;100.00;100788.34;5021496;28;20351;-67
2022/11/06 10:28:59;;;;;;;12.57;3.10;;;;;;;11.06;100.00;100783.88;5028285;28;20130;-67
2022/11/06 10:31:30;;;;;;;8.38;3.15;;;;;;;11.06;100.00;100783.88;5027917;28;20026;-66
2022/11/06 10:34:02;;;;;;;7.57;3.28;;;;;;;11.03;100.00;100779.44;5017826;28;20026;-68
2022/11/06 10:36:38;;;;;;;11.45;3.50;;;;;;;11.02;100.00;100782.06;5019546;28;20030;-67
2022/11/06 10:39:16;;;;;;;12.43;3.35;;;;;;;10.99;100.00;100777.63;5018889;28;20017;-68
2022/11/06 10:41:45;;;;;;;11.38;3.65;;;;;;;10.96;100.00;100778.47;5020262;28;20036;-67
2022/11/06 10:44:21;;;;;;;10.13;3.58;;;;;;;10.95;100.00;100765.28;5034924;28;20044;-67
2022/11/06 10:46:50;;;;;;;8.32;3.15;;;;;;;10.92;100.00;100763.50;5044828;28;20367;-67
2022/11/06 10:49:28;;;;;;;12.20;3.40;;;;;;;10.88;100.00;100755.53;5028333;28;20025;-66
2022/11/06 10:52:21;;;;;;;12.07;3.50;;;;;;;10.86;100.00;100752.00;5018909;28;20475;-68
2022/11/06 10:54:53;;;;;;;19.02;3.92;;;;;;;10.85;100.00;100732.69;5022945;28;20018;-65
2022/11/06 10:57:46;;;;;;;11.45;4.30;;;;;;;10.86;100.00;100742.34;5029348;28;20037;-65
2022/11/06 11:00:15;;;;;;;8.73;4.40;;;;;;;10.87;100.00;100728.31;5027470;28;20022;-66
2022/11/06 11:02:59;;;;;;;14.60;3.65;;;;;;;10.87;100.00;100730.97;5028478;28;20440;-66
2022/11/06 11:05:31;;;;;;;8.38;2.83;;;;;;;10.86;100.00;100733.56;5021555;28;20394;-67
2022/11/06 11:07:56;;;;;;;8.98;3.35;;;;;;;10.83;100.00;100720.38;5024586;28;20108;-67
2022/11/06 11:10:21;;;;;;;8.95;3.20;;;;;;;10.87;100.00;100730.97;5022398;28;20112;-65
2022/11/06 11:12:48;;;;;;;12.55;3.00;;;;;;;10.85;100.00;100726.53;5023483;28;20401;-64
2022/11/06 11:15:18;;;;;;;13.40;2.75;;;;;;;10.80;100.00;100724.72;5036663;28;20025;-66
2022/11/06 11:18:06;;;;;;;9.30;2.83;;;;;;;10.85;100.00;100726.53;5041786;28;20041;-65
2022/11/06 11:20:34;;;;;;;8.82;2.78;;;;;;;10.78;100.00;100718.56;5038098;28;20020;-66
2022/11/06 11:23:25;;;;;;;13.20;3.00;;;;;;;10.75;100.00;100710.63;5033954;28;20381;-66
2022/11/06 11:25:54;;;;;;;9.98;2.80;;;;;;;10.72;100.00;100709.72;5019988;28;20049;-65
2022/11/06 11:28:29;;;;;;;14.88;2.65;;;;;;;10.76;100.00;100722.03;5026595;28;20030;-65
2022/11/06 11:31:00;;;;;;;11.07;2.30;;;;;;;10.71;100.00;100711.44;5031202;28;20026;-65
2022/11/06 11:33:26;;;;;;;9.25;2.63;;;;;;;10.71;100.00;100719.34;5027180;28;20084;-66
2022/11/06 11:35:52;;;;;;;12.05;2.58;;;;;;;10.67;100.00;100707.00;5018402;28;20025;-65
2022/11/06 11:38:20;;;;;;;9.77;2.63;;;;;;;10.60;100.00;100703.38;5014734;28;20025;-64